createdAt,value
2023-02-07T00:01:41.967Z,22.55
2023-02-07T00:04:09.107Z,22.59
2023-02-07T00:06:37.139Z,22.60
2023-02-07T00:09:06.298Z,22.59
2023-02-07T00:11:33.642Z,22.63
2023-02-07T00:14:00.920Z,22.65
2023-02-07T00:16:29.428Z,22.67
2023-02-07T00:18:59.714Z,22.63
2023-02-07T00:21:27.916Z,22.65
2023-02-07T00:23:55.105Z,22.59
2023-02-07T00:26:24.704Z,22.45
2023-02-07T00:28:53.665Z,22.61
2023-02-07T00:31:23.298Z,22.61
2023-02-07T00:33:54.048Z,22.62
2023-02-07T00:36:23.189Z,22.60
2023-02-07T00:38:50.797Z,22.54
2023-02-07T00:41:18.894Z,22.50
2023-02-07T00:43:47.997Z,22.46
2023-02-07T00:46:15.820Z,22.43
2023-02-07T00:48:43.342Z,22.45
2023-02-07T00:51:12.951Z,22.46
2023-02-07T00:53:40.683Z,22.43
2023-02-07T00:56:08.470Z,22.46
2023-02-07T00:58:35.917Z,22.44
2023-02-07T01:01:03.689Z,22.49
2023-02-07T01:03:30.906Z,22.48
2023-02-07T01:05:58.044Z,22.20
2023-02-07T01:08:26.625Z,22.49
2023-02-07T01:10:53.744Z,22.48
2023-02-07T01:13:21.258Z,22.45
2023-02-07T01:15:50.417Z,22.47
2023-02-07T01:18:17.548Z,22.46
2023-02-07T01:20:44.661Z,22.42
2023-02-07T01:23:12.899Z,22.43
2023-02-07T01:25:42.175Z,22.45
2023-02-07T01:28:09.665Z,22.41
2023-02-07T01:30:39.406Z,22.41
2023-02-07T01:33:06.611Z,22.37
2023-02-07T01:35:34.015Z,22.34
2023-02-07T01:38:01.196Z,22.28
2023-02-07T01:40:28.947Z,22.33
2023-02-07T01:42:57.505Z,22.30
2023-02-07T01:45:29.369Z,22.32
2023-02-07T01:48:03.238Z,22.33
2023-02-07T01:50:31.745Z,22.16
2023-02-07T01:53:02.274Z,22.35
2023-02-07T01:55:32.545Z,22.35
2023-02-07T01:58:02.605Z,22.38
2023-02-07T02:00:29.894Z,22.36
2023-02-07T02:03:15.619Z,22.34
2023-02-07T02:05:44.011Z,22.27
2023-02-07T02:08:11.144Z,22.34
2023-02-07T02:10:57.068Z,22.33
2023-02-07T02:13:32.385Z,22.31
2023-02-07T02:16:07.636Z,22.28
2023-02-07T02:18:47.894Z,22.26
2023-02-07T02:21:58.488Z,22.22
2023-02-07T02:25:02.436Z,22.22
2023-02-07T02:27:45.315Z,22.18
2023-02-07T02:30:39.023Z,22.16
2023-02-07T02:33:21.555Z,22.13
2023-02-07T02:35:57.463Z,22.15
2023-02-07T02:38:32.356Z,22.17
2023-02-07T02:41:05.354Z,22.20
2023-02-07T02:43:40.762Z,22.20
2023-02-07T02:46:12.742Z,22.22
2023-02-07T02:48:43.715Z,22.22
2023-02-07T02:51:11.153Z,22.24
2023-02-07T02:53:38.305Z,22.23
2023-02-07T02:56:32.179Z,22.20
2023-02-07T02:59:24.403Z,22.16
2023-02-07T03:01:57.425Z,22.18
2023-02-07T03:04:48.460Z,22.17
2023-02-07T03:07:33.771Z,22.13
2023-02-07T03:10:07.832Z,22.06
2023-02-07T03:12:42.068Z,22.01
2023-02-07T03:15:18.324Z,22.03
2023-02-07T03:17:50.597Z,22.02
2023-02-07T03:20:22.957Z,22.10
2023-02-07T03:22:52.093Z,22.32
2023-02-07T03:25:21.308Z,22.74
2023-02-07T03:27:49.707Z,23.14
2023-02-07T03:30:20.812Z,23.49
2023-02-07T03:32:52.169Z,23.67
2023-02-07T03:35:24.690Z,23.71
2023-02-07T03:37:55.898Z,23.67
2023-02-07T03:40:26.270Z,23.69
2023-02-07T03:42:58.069Z,23.66
2023-02-07T03:45:25.636Z,23.62
2023-02-07T03:47:52.750Z,23.56
2023-02-07T03:50:21.361Z,23.50
2023-02-07T03:52:48.455Z,23.44
2023-02-07T03:55:16.012Z,23.29
2023-02-07T03:57:43.115Z,23.25
2023-02-07T04:00:11.539Z,23.24
2023-02-07T04:02:38.851Z,23.18
2023-02-07T04:05:06.711Z,23.15
2023-02-07T04:07:35.443Z,23.07
2023-02-07T04:10:03.151Z,23.05
2023-02-07T04:12:30.271Z,22.92
2023-02-07T04:14:57.354Z,22.94
2023-02-07T04:17:24.450Z,22.95
2023-02-07T04:19:51.530Z,22.93
2023-02-07T04:22:18.661Z,22.91
2023-02-07T04:24:47.158Z,22.89
2023-02-07T04:27:14.533Z,22.89
2023-02-07T04:29:41.782Z,22.83
2023-02-07T04:32:08.931Z,22.82
2023-02-07T04:34:36.039Z,22.75
2023-02-07T04:37:03.486Z,22.65
2023-02-07T04:39:30.618Z,22.71
2023-02-07T04:41:59.060Z,22.66
2023-02-07T04:44:26.188Z,22.63
2023-02-07T04:46:53.286Z,22.64
2023-02-07T04:49:20.503Z,22.60
2023-02-07T04:51:47.596Z,22.48
2023-02-07T04:54:14.727Z,22.46
2023-02-07T04:56:42.107Z,22.48
2023-02-07T04:59:10.545Z,22.65
2023-02-07T05:01:37.743Z,22.74
2023-02-07T05:04:05.010Z,22.83
2023-02-07T05:06:32.099Z,22.83
2023-02-07T05:08:59.226Z,22.84
2023-02-07T05:11:26.338Z,22.89
2023-02-07T05:13:53.449Z,22.88
2023-02-07T05:16:22.051Z,22.94
2023-02-07T05:18:49.162Z,22.95
2023-02-07T05:21:16.259Z,22.98
2023-02-07T05:23:43.379Z,22.96
2023-02-07T05:26:10.510Z,23.02
2023-02-07T05:28:37.619Z,23.07
2023-02-07T05:31:05.154Z,23.08
2023-02-07T05:33:33.620Z,23.13
2023-02-07T05:36:01.396Z,23.12
2023-02-07T05:38:29.106Z,23.06
2023-02-07T05:40:56.497Z,23.07
2023-02-07T05:43:23.638Z,22.93
2023-02-07T05:45:50.978Z,22.88
2023-02-07T05:48:18.108Z,22.92
2023-02-07T05:50:46.522Z,22.96
2023-02-07T05:53:13.718Z,23.08
2023-02-07T05:55:41.200Z,23.33
2023-02-07T05:58:08.466Z,23.46
2023-02-07T06:00:35.580Z,23.53
2023-02-07T06:03:02.689Z,23.66
2023-02-07T06:05:29.773Z,23.68
2023-02-07T06:07:58.344Z,23.54
2023-02-07T06:10:25.603Z,23.59
2023-02-07T06:12:52.738Z,23.54
2023-02-07T06:15:19.931Z,23.48
2023-02-07T06:17:47.543Z,23.42
2023-02-07T06:20:14.946Z,23.37
2023-02-07T06:22:42.513Z,23.29
2023-02-07T06:25:11.562Z,23.18
2023-02-07T06:27:39.103Z,23.23
2023-02-07T06:30:07.584Z,23.10
2023-02-07T06:32:34.994Z,23.08
2023-02-07T06:35:02.086Z,22.96
2023-02-07T06:37:29.390Z,22.94
2023-02-07T06:39:56.505Z,22.84
2023-02-07T06:42:24.934Z,22.91
2023-02-07T06:44:52.072Z,22.92
2023-02-07T06:47:19.203Z,22.98
2023-02-07T06:49:46.774Z,22.98
2023-02-07T06:52:14.280Z,23.03
2023-02-07T06:54:41.662Z,23.03
2023-02-07T06:57:08.908Z,22.97
2023-02-07T06:59:37.398Z,22.95
2023-02-07T07:02:04.628Z,22.96
2023-02-07T07:04:31.776Z,22.91
2023-02-07T07:06:58.930Z,22.92
2023-02-07T07:09:26.049Z,22.87
2023-02-07T07:11:53.151Z,22.88
2023-02-07T07:14:20.509Z,22.85
2023-02-07T07:16:48.929Z,22.83
2023-02-07T07:19:16.122Z,22.83
2023-02-07T07:21:43.279Z,22.81
2023-02-07T07:24:10.409Z,22.83
2023-02-07T07:26:48.972Z,23.02
2023-02-07T07:29:18.042Z,23.21
2023-02-07T07:31:45.358Z,23.28
2023-02-07T07:34:14.373Z,23.43
2023-02-07T07:36:41.742Z,23.51
2023-02-07T07:39:08.863Z,23.69
2023-02-07T07:41:35.968Z,23.73
2023-02-07T07:44:03.196Z,23.69
2023-02-07T07:46:30.325Z,23.94
2023-02-07T07:48:57.475Z,23.96
2023-02-07T07:51:26.063Z,23.97
2023-02-07T07:53:53.162Z,23.91
2023-02-07T07:56:20.259Z,23.88
2023-02-07T07:58:47.387Z,23.84
2023-02-07T08:01:14.571Z,23.80
2023-02-07T08:03:41.784Z,23.72
2023-02-07T08:06:08.945Z,23.71
2023-02-07T08:08:37.492Z,23.67
2023-02-07T08:11:06.370Z,23.52
2023-02-07T08:13:33.593Z,23.53
2023-02-07T08:16:01.176Z,23.52
2023-02-07T08:18:28.837Z,23.53
2023-02-07T08:20:56.070Z,23.47
2023-02-07T08:23:23.180Z,23.37
2023-02-07T08:25:51.610Z,23.30
2023-02-07T08:28:19.669Z,23.31
2023-02-07T08:30:46.957Z,23.35
2023-02-07T08:33:14.602Z,23.29
2023-02-07T08:35:41.998Z,23.31
2023-02-07T08:38:09.452Z,23.22
2023-02-07T08:40:37.223Z,23.24
2023-02-07T08:43:05.863Z,23.23
2023-02-07T08:45:33.587Z,23.17
2023-02-07T08:48:00.707Z,23.19
2023-02-07T08:50:27.882Z,23.20
2023-02-07T08:52:54.975Z,23.16
2023-02-07T08:55:22.081Z,23.14
2023-02-07T08:57:49.432Z,23.22
2023-02-07T09:00:18.549Z,23.14
2023-02-07T09:02:45.645Z,23.07
2023-02-07T09:05:12.799Z,23.06
2023-02-07T09:07:40.027Z,23.00
2023-02-07T09:10:08.817Z,22.95
2023-02-07T09:12:36.178Z,22.99
2023-02-07T09:15:04.340Z,23.04
2023-02-07T09:17:33.036Z,23.06
2023-02-07T09:20:00.241Z,23.07
2023-02-07T09:22:27.373Z,23.03
2023-02-07T09:24:54.486Z,23.04
2023-02-07T09:27:21.878Z,23.06
2023-02-07T09:29:48.969Z,23.09
2023-02-07T09:32:16.103Z,22.99
2023-02-07T09:34:44.792Z,23.00
2023-02-07T09:37:11.876Z,22.92
2023-02-07T09:39:38.981Z,22.97
2023-02-07T09:42:21.296Z,22.99
2023-02-07T09:44:57.196Z,22.98
2023-02-07T09:47:26.161Z,23.01
2023-02-07T09:49:59.231Z,23.04
2023-02-07T09:52:30.724Z,23.03
2023-02-07T09:54:59.350Z,23.09
2023-02-07T09:57:30.518Z,23.09
2023-02-07T10:00:01.208Z,23.08
2023-02-07T10:02:36.124Z,23.13
2023-02-07T10:05:15.308Z,23.19
2023-02-07T10:07:43.762Z,23.24
2023-02-07T10:10:15.235Z,23.21
2023-02-07T10:13:08.539Z,23.23
2023-02-07T10:15:49.502Z,23.19
2023-02-07T10:18:36.650Z,23.22
2023-02-07T10:21:12.127Z,23.31
2023-02-07T10:23:52.613Z,23.33
2023-02-07T10:26:30.471Z,23.48
2023-02-07T10:29:13.144Z,23.83
2023-02-07T10:31:47.050Z,24.23
2023-02-07T10:34:17.855Z,24.21
2023-02-07T10:36:48.348Z,24.29
2023-02-07T10:39:21.796Z,24.14
2023-02-07T10:41:49.190Z,24.11
2023-02-07T10:44:18.755Z,24.08
2023-02-07T10:46:50.462Z,24.08
2023-02-07T10:49:24.842Z,24.13
2023-02-07T10:51:56.909Z,24.14
2023-02-07T10:54:24.562Z,24.19
2023-02-07T10:56:57.827Z,24.17
2023-02-07T10:59:37.390Z,24.18
2023-02-07T11:02:51.451Z,24.21
2023-02-07T11:05:52.672Z,24.13
2023-02-07T11:08:23.789Z,24.03
2023-02-07T11:10:52.755Z,24.65
2023-02-07T11:13:21.962Z,25.00
2023-02-07T11:15:53.991Z,25.06
2023-02-07T11:18:31.531Z,24.92
2023-02-07T11:20:58.720Z,24.75
2023-02-07T11:23:27.206Z,24.60
2023-02-07T11:25:56.211Z,24.66
2023-02-07T11:28:26.468Z,24.56
2023-02-07T11:30:56.396Z,23.83
2023-02-07T11:33:27.934Z,23.68
2023-02-07T11:36:06.404Z,23.62
2023-02-07T11:38:40.331Z,23.59
2023-02-07T11:41:16.894Z,23.54
2023-02-07T11:43:53.123Z,23.54
2023-02-07T11:46:20.342Z,23.55
2023-02-07T11:48:50.964Z,23.54
2023-02-07T11:51:18.934Z,23.56
2023-02-07T11:53:50.610Z,23.62
2023-02-07T11:56:23.012Z,23.64
2023-02-07T11:58:51.125Z,23.63
2023-02-07T12:01:22.770Z,23.68
2023-02-07T12:03:53.934Z,23.57
2023-02-07T12:06:22.612Z,23.66
2023-02-07T12:08:51.555Z,23.74
2023-02-07T12:11:24.161Z,23.78
2023-02-07T12:13:55.712Z,23.78
2023-02-07T12:16:26.411Z,23.80
2023-02-07T12:18:57.891Z,23.73
2023-02-07T12:21:28.379Z,23.61
2023-02-07T12:24:01.246Z,23.61
2023-02-07T12:26:31.422Z,23.62
2023-02-07T12:29:14.727Z,23.67
2023-02-07T12:31:50.874Z,23.67
2023-02-07T12:34:25.717Z,23.71
2023-02-07T12:36:58.542Z,23.71
2023-02-07T12:39:34.380Z,23.78
2023-02-07T12:42:13.224Z,23.80
2023-02-07T12:44:47.726Z,23.81
2023-02-07T12:47:23.184Z,23.80
2023-02-07T12:50:15.480Z,23.79
2023-02-07T12:52:54.195Z,23.78
2023-02-07T12:55:38.779Z,23.80
2023-02-07T12:58:22.361Z,23.73
2023-02-07T13:00:57.123Z,23.70
2023-02-07T13:03:46.038Z,23.72
2023-02-07T13:06:21.806Z,23.69
2023-02-07T13:08:56.170Z,23.64
2023-02-07T13:11:34.030Z,23.61
2023-02-07T13:14:15.435Z,23.56
2023-02-07T13:16:50.728Z,23.56
2023-02-07T13:19:28.781Z,23.52
2023-02-07T13:22:03.246Z,23.52
2023-02-07T13:24:33.186Z,23.64
2023-02-07T13:27:05.503Z,23.74
2023-02-07T13:29:34.999Z,24.02
2023-02-07T13:32:06.390Z,24.14
2023-02-07T13:34:42.092Z,24.13
2023-02-07T13:37:17.143Z,24.26
2023-02-07T13:39:56.424Z,24.31
2023-02-07T13:42:33.518Z,24.28
2023-02-07T13:45:08.876Z,24.24
2023-02-07T13:47:53.786Z,24.16
2023-02-07T13:50:38.281Z,24.05
2023-02-07T13:53:20.922Z,24.03
2023-02-07T13:55:48.455Z,23.99
2023-02-07T13:59:01.436Z,23.82
2023-02-07T14:01:31.367Z,23.74
2023-02-07T14:04:03.361Z,23.68
2023-02-07T14:06:32.125Z,23.67
2023-02-07T14:09:05.385Z,23.63
2023-02-07T14:11:39.920Z,23.63
2023-02-07T14:14:15.159Z,23.65
2023-02-07T14:16:47.678Z,23.61
2023-02-07T14:19:15.317Z,23.61
2023-02-07T14:21:42.593Z,23.61
2023-02-07T14:24:21.333Z,23.63
2023-02-07T14:26:57.954Z,23.57
2023-02-07T14:29:52.868Z,23.58
2023-02-07T14:32:42.074Z,23.57
2023-02-07T14:35:32.603Z,23.49
2023-02-07T14:38:11.032Z,23.44
2023-02-07T14:40:54.359Z,23.46
2023-02-07T14:43:26.837Z,23.45
2023-02-07T14:46:11.437Z,23.41
2023-02-07T14:48:51.064Z,23.34
2023-02-07T14:51:22.159Z,23.32
2023-02-07T14:53:59.362Z,23.34
2023-02-07T14:56:45.427Z,23.33
2023-02-07T14:59:18.388Z,23.32
2023-02-07T15:01:45.602Z,23.34
2023-02-07T15:04:14.116Z,23.37
2023-02-07T15:06:43.241Z,23.41
2023-02-07T15:09:24.489Z,23.37
2023-02-07T15:12:04.836Z,23.39
2023-02-07T15:14:35.489Z,23.36
2023-02-07T15:17:03.250Z,23.34
2023-02-07T15:19:35.766Z,23.33
2023-02-07T15:22:14.340Z,23.31
2023-02-07T15:24:51.795Z,23.30
2023-02-07T15:27:22.009Z,23.29
2023-02-07T15:29:54.664Z,23.28
2023-02-07T15:32:23.173Z,23.27
2023-02-07T15:34:51.606Z,23.23
2023-02-07T15:37:22.551Z,23.20
2023-02-07T15:39:51.964Z,23.15
2023-02-07T15:42:20.586Z,23.13
2023-02-07T15:44:49.774Z,23.13
2023-02-07T15:47:35.122Z,22.77
2023-02-07T15:50:06.003Z,23.11
2023-02-07T15:52:35.638Z,23.13
2023-02-07T15:55:14.032Z,23.14
2023-02-07T15:57:42.888Z,23.17
2023-02-07T16:00:17.094Z,23.17
2023-02-07T16:02:45.618Z,23.15
2023-02-07T16:05:21.921Z,23.17
2023-02-07T16:07:49.140Z,23.15
2023-02-07T16:10:20.400Z,23.14
2023-02-07T16:12:50.875Z,23.13
2023-02-07T16:15:25.598Z,23.11
2023-02-07T16:17:52.727Z,23.10
2023-02-07T16:20:21.941Z,23.10
2023-02-07T16:22:49.809Z,23.08
2023-02-07T16:25:19.969Z,23.06
2023-02-07T16:27:49.384Z,22.99
2023-02-07T16:30:19.420Z,22.93
2023-02-07T16:32:46.977Z,22.99
2023-02-07T16:35:19.099Z,23.09
2023-02-07T16:37:47.800Z,23.05
2023-02-07T16:40:15.590Z,23.15
2023-02-07T16:42:43.807Z,23.37
2023-02-07T16:45:18.377Z,23.59
2023-02-07T16:47:46.174Z,23.73
2023-02-07T16:50:21.068Z,23.78
2023-02-07T16:52:51.362Z,23.69
2023-02-07T16:55:20.725Z,23.72
2023-02-07T16:57:48.972Z,23.78
2023-02-07T17:00:18.352Z,23.73
2023-02-07T17:02:45.746Z,23.72
2023-02-07T17:05:12.826Z,23.69
2023-02-07T17:07:40.032Z,23.58
2023-02-07T17:10:21.087Z,23.53
2023-02-07T17:12:48.420Z,23.49
2023-02-07T17:15:16.294Z,23.41
2023-02-07T17:17:43.994Z,23.38
2023-02-07T17:20:20.433Z,23.37
2023-02-07T17:22:47.561Z,23.35
2023-02-07T17:25:16.341Z,23.34
2023-02-07T17:27:43.446Z,23.33
2023-02-07T17:30:16.813Z,23.38
2023-02-07T17:32:44.285Z,23.36
2023-02-07T17:35:11.514Z,23.31
2023-02-07T17:37:38.666Z,23.31
2023-02-07T17:40:20.375Z,23.22
2023-02-07T17:42:47.601Z,23.23
2023-02-07T17:45:14.922Z,23.22
2023-02-07T17:47:42.483Z,23.00
2023-02-07T17:50:13.162Z,23.16
2023-02-07T17:52:40.240Z,23.13
2023-02-07T17:55:07.872Z,23.13
2023-02-07T17:57:36.498Z,23.09
2023-02-07T18:00:05.011Z,23.08
2023-02-07T18:02:32.133Z,23.01
2023-02-07T18:04:59.259Z,22.98
2023-02-07T18:07:26.471Z,22.92
2023-02-07T18:09:53.747Z,22.89
2023-02-07T18:12:20.900Z,22.83
2023-02-07T18:14:51.167Z,22.83
2023-02-07T18:17:18.602Z,22.86
2023-02-07T18:19:45.708Z,22.90
2023-02-07T18:22:12.801Z,22.94
2023-02-07T18:24:39.923Z,22.96
2023-02-07T18:27:07.108Z,22.98
2023-02-07T18:29:34.386Z,22.98
2023-02-07T18:32:02.813Z,22.89
2023-02-07T18:34:30.004Z,22.95
2023-02-07T18:36:57.109Z,22.94
2023-02-07T18:39:24.215Z,22.90
2023-02-07T18:41:51.337Z,22.91
2023-02-07T18:44:18.422Z,22.89
2023-02-07T18:46:45.829Z,22.93
2023-02-07T18:49:14.393Z,23.00
2023-02-07T18:51:41.501Z,23.10
2023-02-07T18:54:08.642Z,23.08
2023-02-07T18:56:35.773Z,23.11
2023-02-07T18:59:03.440Z,23.08
2023-02-07T19:01:31.062Z,23.12
2023-02-07T19:03:58.746Z,23.09
2023-02-07T19:06:29.159Z,23.19
2023-02-07T19:08:57.079Z,23.21
2023-02-07T19:11:24.500Z,23.19
2023-02-07T19:13:51.636Z,23.17
2023-02-07T19:16:21.329Z,23.16
2023-02-07T19:18:49.174Z,23.12
2023-02-07T19:21:18.814Z,23.12
2023-02-07T19:23:47.697Z,23.04
2023-02-07T19:26:14.847Z,23.07
2023-02-07T19:28:41.931Z,23.09
2023-02-07T19:31:12.501Z,23.11
2023-02-07T19:33:39.659Z,23.08
2023-02-07T19:36:09.378Z,23.07
2023-02-07T19:38:37.582Z,23.00
2023-02-07T19:41:07.088Z,23.04
2023-02-07T19:43:35.072Z,22.88
2023-02-07T19:46:02.732Z,22.92
2023-02-07T19:48:29.987Z,22.84
2023-02-07T19:50:58.311Z,22.75
2023-02-07T19:53:25.944Z,22.79
2023-02-07T19:55:53.098Z,22.84
2023-02-07T19:58:21.622Z,22.84
2023-02-07T20:00:49.099Z,22.89
2023-02-07T20:03:16.216Z,22.91
2023-02-07T20:05:43.633Z,22.91
2023-02-07T20:08:10.779Z,22.99
2023-02-07T20:10:41.574Z,22.92
2023-02-07T20:13:09.010Z,22.95
2023-02-07T20:15:40.014Z,22.94
2023-02-07T20:18:07.206Z,22.94
2023-02-07T20:20:34.569Z,22.93
2023-02-07T20:23:01.671Z,22.88
2023-02-07T20:25:28.911Z,22.87
2023-02-07T20:27:56.323Z,22.87
2023-02-07T20:30:23.408Z,22.85
2023-02-07T20:32:53.125Z,22.81
2023-02-07T20:35:20.340Z,22.79
2023-02-07T20:37:47.475Z,22.78
2023-02-07T20:40:14.903Z,22.77
2023-02-07T20:42:41.988Z,22.76
2023-02-07T20:45:09.901Z,22.84
2023-02-07T20:47:37.613Z,22.85
2023-02-07T20:50:06.982Z,22.98
2023-02-07T20:52:34.073Z,22.92
2023-02-07T20:55:01.193Z,22.89
2023-02-07T20:57:28.279Z,22.91
2023-02-07T20:59:55.397Z,22.87
2023-02-07T21:02:22.542Z,22.86
2023-02-07T21:04:49.813Z,22.87
2023-02-07T21:07:18.318Z,22.85
2023-02-07T21:09:45.625Z,22.88
2023-02-07T21:12:13.124Z,22.88
2023-02-07T21:14:41.586Z,22.83
2023-02-07T21:17:10.238Z,22.86
2023-02-07T21:19:38.077Z,22.80
2023-02-07T21:22:06.037Z,22.73
2023-02-07T21:24:34.748Z,22.70
2023-02-07T21:27:01.859Z,22.72
2023-02-07T21:29:28.976Z,22.74
2023-02-07T21:31:56.224Z,22.71
2023-02-07T21:34:23.624Z,22.80
2023-02-07T21:36:52.496Z,22.73
2023-02-07T21:39:20.000Z,22.71
2023-02-07T21:41:48.429Z,22.75
2023-02-07T21:44:15.935Z,22.77
2023-02-07T21:46:43.962Z,22.75
2023-02-07T21:49:13.320Z,22.74
2023-02-07T21:51:41.684Z,22.58
2023-02-07T21:54:09.237Z,22.70
2023-02-07T21:56:39.754Z,22.71
2023-02-07T21:59:12.446Z,22.66
2023-02-07T22:01:40.230Z,22.64
2023-02-07T22:04:09.013Z,22.63
2023-02-07T22:06:36.602Z,22.63
2023-02-07T22:09:04.509Z,22.56
2023-02-07T22:11:35.043Z,22.52
2023-02-07T22:14:03.116Z,22.53
2023-02-07T22:16:32.597Z,22.15
2023-02-07T22:19:01.280Z,22.40
2023-02-07T22:21:30.155Z,22.41
2023-02-07T22:23:58.537Z,22.47
2023-02-07T22:26:26.655Z,22.51
2023-02-07T22:28:54.229Z,22.52
2023-02-07T22:31:23.621Z,22.57
2023-02-07T22:33:53.870Z,22.55
2023-02-07T22:36:23.118Z,22.55
2023-02-07T22:38:51.170Z,22.51
2023-02-07T22:41:18.590Z,22.49
2023-02-07T22:43:45.942Z,22.49
2023-02-07T22:46:15.056Z,22.49
2023-02-07T22:48:42.725Z,22.45
2023-02-07T22:51:13.216Z,22.45
2023-02-07T22:53:41.078Z,22.42
2023-02-07T22:56:08.709Z,22.40
2023-02-07T22:58:36.513Z,22.41
2023-02-07T23:01:05.099Z,22.36
2023-02-07T23:03:33.164Z,22.35
2023-02-07T23:06:03.525Z,22.31
2023-02-07T23:08:32.077Z,22.32
2023-02-07T23:10:59.183Z,22.32
2023-02-07T23:13:26.302Z,22.27
2023-02-07T23:15:53.543Z,22.32
2023-02-07T23:18:20.696Z,22.36
2023-02-07T23:20:47.812Z,22.36
2023-02-07T23:23:14.912Z,22.37
2023-02-07T23:25:45.188Z,22.38
2023-02-07T23:28:13.362Z,22.39
2023-02-07T23:30:41.815Z,22.32
2023-02-07T23:33:09.910Z,22.33
2023-02-07T23:35:37.092Z,22.30
2023-02-07T23:38:04.463Z,22.30
2023-02-07T23:40:32.392Z,22.30
2023-02-07T23:43:00.825Z,22.28
2023-02-07T23:45:27.966Z,22.26
2023-02-07T23:47:55.097Z,22.23
2023-02-07T23:50:22.312Z,22.21
2023-02-07T23:52:49.442Z,22.20
2023-02-07T23:55:17.090Z,22.16
2023-02-07T23:57:44.177Z,22.14
